sensor_id;sensor_type;location;lat;lon;timestamp;temperature;humidity
54960;DHT22;40860;51.710;8.736;2023-11-21T00:02:25;6.60;99.90
54960;DHT22;40860;51.710;8.736;2023-11-21T00:06:29;6.60;99.90
54960;DHT22;40860;51.710;8.736;2023-11-21T00:10:33;6.50;99.90
54960;DHT22;40860;51.710;8.736;2023-11-21T00:14:36;6.40;99.90
54960;DHT22;40860;51.710;8.736;2023-11-21T00:18:41;6.40;99.90
54960;DHT22;40860;51.710;8.736;2023-11-21T00:22:44;6.40;99.90
54960;DHT22;40860;51.710;8.736;2023-11-21T00:26:48;6.50;99.90
54960;DHT22;40860;51.710;8.736;2023-11-21T00:30:52;6.50;99.90
54960;DHT22;40860;51.710;8.736;2023-11-21T00:35:06;6.50;99.90
54960;DHT22;40860;51.710;8.736;2023-11-21T00:39:09;6.50;99.90
54960;DHT22;40860;51.710;8.736;2023-11-21T00:43:13;6.60;99.90
54960;DHT22;40860;51.710;8.736;2023-11-21T00:47:16;6.60;99.90
54960;DHT22;40860;51.710;8.736;2023-11-21T00:51:21;6.60;99.90
54960;DHT22;40860;51.710;8.736;2023-11-21T00:55:24;6.70;99.90
54960;DHT22;40860;51.710;8.736;2023-11-21T00:59:29;6.70;99.90
54960;DHT22;40860;51.710;8.736;2023-11-21T01:03:33;6.80;99.90
54960;DHT22;40860;51.710;8.736;2023-11-21T01:07:37;6.80;99.90
54960;DHT22;40860;51.710;8.736;2023-11-21T01:11:40;6.80;99.90
54960;DHT22;40860;51.710;8.736;2023-11-21T01:15:46;6.90;99.90
54960;DHT22;40860;51.710;8.736;2023-11-21T01:19:49;6.90;99.90
54960;DHT22;40860;51.710;8.736;2023-11-21T01:23:53;6.90;99.90
54960;DHT22;40860;51.710;8.736;2023-11-21T01:27:56;6.90;99.90
54960;DHT22;40860;51.710;8.736;2023-11-21T01:31:59;6.80;99.90
54960;DHT22;40860;51.710;8.736;2023-11-21T01:36:04;6.80;99.90
54960;DHT22;40860;51.710;8.736;2023-11-21T01:40:09;6.70;99.90
54960;DHT22;40860;51.710;8.736;2023-11-21T01:44:16;6.70;99.90
54960;DHT22;40860;51.710;8.736;2023-11-21T01:48:21;6.70;99.90
54960;DHT22;40860;51.710;8.736;2023-11-21T01:52:24;6.70;99.90
54960;DHT22;40860;51.710;8.736;2023-11-21T01:56:30;6.70;99.90
54960;DHT22;40860;51.710;8.736;2023-11-21T02:00:34;6.80;99.90
54960;DHT22;40860;51.710;8.736;2023-11-21T02:04:37;6.80;99.90
54960;DHT22;40860;51.710;8.736;2023-11-21T02:08:40;6.90;99.90
54960;DHT22;40860;51.710;8.736;2023-11-21T02:12:48;6.80;99.90
54960;DHT22;40860;51.710;8.736;2023-11-21T02:16:52;6.80;99.90
54960;DHT22;40860;51.710;8.736;2023-11-21T02:20:56;6.80;99.90
54960;DHT22;40860;51.710;8.736;2023-11-21T02:25:01;6.80;99.90
54960;DHT22;40860;51.710;8.736;2023-11-21T02:29:04;6.80;99.90
54960;DHT22;40860;51.710;8.736;2023-11-21T02:33:07;6.80;99.90
54960;DHT22;40860;51.710;8.736;2023-11-21T02:37:10;6.70;99.90
54960;DHT22;40860;51.710;8.736;2023-11-21T02:41:14;6.80;99.90
54960;DHT22;40860;51.710;8.736;2023-11-21T02:45:18;6.70;99.90
54960;DHT22;40860;51.710;8.736;2023-11-21T02:49:25;6.60;99.90
54960;DHT22;40860;51.710;8.736;2023-11-21T02:53:30;6.60;99.90
54960;DHT22;40860;51.710;8.736;2023-11-21T02:57:35;6.60;99.90
54960;DHT22;40860;51.710;8.736;2023-11-21T03:01:38;6.60;99.90
54960;DHT22;40860;51.710;8.736;2023-11-21T03:05:42;6.50;99.90
54960;DHT22;40860;51.710;8.736;2023-11-21T03:09:45;6.50;99.90
54960;DHT22;40860;51.710;8.736;2023-11-21T03:13:50;6.60;99.90
54960;DHT22;40860;51.710;8.736;2023-11-21T03:17:57;6.60;99.90
54960;DHT22;40860;51.710;8.736;2023-11-21T03:22:00;6.60;99.90
54960;DHT22;40860;51.710;8.736;2023-11-21T03:26:03;6.70;99.90
54960;DHT22;40860;51.710;8.736;2023-11-21T03:30:09;6.70;99.90
54960;DHT22;40860;51.710;8.736;2023-11-21T03:34:16;6.70;99.90
54960;DHT22;40860;51.710;8.736;2023-11-21T03:38:19;6.80;99.90
54960;DHT22;40860;51.710;8.736;2023-11-21T03:42:22;6.80;99.90
54960;DHT22;40860;51.710;8.736;2023-11-21T03:46:27;6.90;99.90
54960;DHT22;40860;51.710;8.736;2023-11-21T03:50:30;6.90;99.90
54960;DHT22;40860;51.710;8.736;2023-11-21T03:54:33;7.00;99.90
54960;DHT22;40860;51.710;8.736;2023-11-21T03:58:37;7.00;99.90
54960;DHT22;40860;51.710;8.736;2023-11-21T04:02:41;7.00;99.90
54960;DHT22;40860;51.710;8.736;2023-11-21T04:06:44;7.00;99.90
54960;DHT22;40860;51.710;8.736;2023-11-21T04:10:47;7.00;99.90
54960;DHT22;40860;51.710;8.736;2023-11-21T04:14:50;7.10;99.90
54960;DHT22;40860;51.710;8.736;2023-11-21T04:18:59;7.10;99.90
54960;DHT22;40860;51.710;8.736;2023-11-21T04:23:02;7.10;99.90
54960;DHT22;40860;51.710;8.736;2023-11-21T04:27:06;7.10;99.90
54960;DHT22;40860;51.710;8.736;2023-11-21T04:31:09;7.20;99.90
54960;DHT22;40860;51.710;8.736;2023-11-21T04:35:13;7.20;99.90
54960;DHT22;40860;51.710;8.736;2023-11-21T04:39:16;7.20;99.90
54960;DHT22;40860;51.710;8.736;2023-11-21T04:43:19;7.30;99.90
54960;DHT22;40860;51.710;8.736;2023-11-21T04:47:22;7.30;99.90
54960;DHT22;40860;51.710;8.736;2023-11-21T04:51:30;7.30;99.90
54960;DHT22;40860;51.710;8.736;2023-11-21T04:55:34;7.30;99.90
54960;DHT22;40860;51.710;8.736;2023-11-21T04:59:36;7.40;99.90
54960;DHT22;40860;51.710;8.736;2023-11-21T05:03:39;7.40;99.90
54960;DHT22;40860;51.710;8.736;2023-11-21T05:07:44;7.40;99.90
54960;DHT22;40860;51.710;8.736;2023-11-21T05:11:47;7.40;99.90
54960;DHT22;40860;51.710;8.736;2023-11-21T05:15:50;7.40;99.90
54960;DHT22;40860;51.710;8.736;2023-11-21T05:19:53;7.40;99.90
54960;DHT22;40860;51.710;8.736;2023-11-21T05:23:58;7.50;99.90
54960;DHT22;40860;51.710;8.736;2023-11-21T05:28:00;7.50;99.90
54960;DHT22;40860;51.710;8.736;2023-11-21T05:32:04;7.50;99.90
54960;DHT22;40860;51.710;8.736;2023-11-21T05:36:08;7.60;99.90
54960;DHT22;40860;51.710;8.736;2023-11-21T05:40:13;7.50;99.90
54960;DHT22;40860;51.710;8.736;2023-11-21T05:44:16;7.50;99.90
54960;DHT22;40860;51.710;8.736;2023-11-21T05:48:19;7.60;99.90
54960;DHT22;40860;51.710;8.736;2023-11-21T05:52:23;7.60;99.90
54960;DHT22;40860;51.710;8.736;2023-11-21T05:56:27;7.60;99.90
54960;DHT22;40860;51.710;8.736;2023-11-21T06:00:30;7.60;99.90
54960;DHT22;40860;51.710;8.736;2023-11-21T06:04:34;7.70;99.90
54960;DHT22;40860;51.710;8.736;2023-11-21T06:08:37;7.70;99.90
54960;DHT22;40860;51.710;8.736;2023-11-21T06:12:41;7.60;99.90
54960;DHT22;40860;51.710;8.736;2023-11-21T06:16:45;7.70;99.90
54960;DHT22;40860;51.710;8.736;2023-11-21T06:20:48;7.70;99.90
54960;DHT22;40860;51.710;8.736;2023-11-21T06:24:51;7.60;99.90
54960;DHT22;40860;51.710;8.736;2023-11-21T06:28:56;7.70;99.90
54960;DHT22;40860;51.710;8.736;2023-11-21T06:32:59;7.70;99.90
54960;DHT22;40860;51.710;8.736;2023-11-21T06:37:02;7.70;99.90
54960;DHT22;40860;51.710;8.736;2023-11-21T06:41:06;7.70;99.90
54960;DHT22;40860;51.710;8.736;2023-11-21T06:45:13;7.70;99.90
54960;DHT22;40860;51.710;8.736;2023-11-21T06:49:17;7.70;99.90
54960;DHT22;40860;51.710;8.736;2023-11-21T06:53:20;7.70;99.90
54960;DHT22;40860;51.710;8.736;2023-11-21T06:57:23;7.70;99.90
54960;DHT22;40860;51.710;8.736;2023-11-21T07:01:27;7.70;99.90
54960;DHT22;40860;51.710;8.736;2023-11-21T07:05:31;7.70;99.90
54960;DHT22;40860;51.710;8.736;2023-11-21T07:09:34;7.80;99.90
54960;DHT22;40860;51.710;8.736;2023-11-21T07:13:37;7.80;99.90
54960;DHT22;40860;51.710;8.736;2023-11-21T07:17:41;7.80;99.90
54960;DHT22;40860;51.710;8.736;2023-11-21T07:21:45;7.80;99.90
54960;DHT22;40860;51.710;8.736;2023-11-21T07:25:48;7.80;99.90
54960;DHT22;40860;51.710;8.736;2023-11-21T07:29:54;7.80;99.90
54960;DHT22;40860;51.710;8.736;2023-11-21T07:34:01;7.80;99.90
54960;DHT22;40860;51.710;8.736;2023-11-21T07:38:05;7.80;99.90
54960;DHT22;40860;51.710;8.736;2023-11-21T07:42:14;7.80;99.90
54960;DHT22;40860;51.710;8.736;2023-11-21T07:46:23;7.90;99.90
54960;DHT22;40860;51.710;8.736;2023-11-21T07:50:30;7.90;99.90
54960;DHT22;40860;51.710;8.736;2023-11-21T07:54:36;7.90;99.90
54960;DHT22;40860;51.710;8.736;2023-11-21T07:58:39;7.90;99.90
54960;DHT22;40860;51.710;8.736;2023-11-21T08:02:44;7.90;99.90
54960;DHT22;40860;51.710;8.736;2023-11-21T08:06:51;7.90;99.90
54960;DHT22;40860;51.710;8.736;2023-11-21T08:10:54;7.90;99.90
54960;DHT22;40860;51.710;8.736;2023-11-21T08:14:59;7.90;99.90
54960;DHT22;40860;51.710;8.736;2023-11-21T08:19:07;7.90;99.90
54960;DHT22;40860;51.710;8.736;2023-11-21T08:23:14;8.00;99.90
54960;DHT22;40860;51.710;8.736;2023-11-21T08:27:20;8.00;99.90
54960;DHT22;40860;51.710;8.736;2023-11-21T08:31:26;8.00;99.90
54960;DHT22;40860;51.710;8.736;2023-11-21T08:35:29;8.00;99.90
54960;DHT22;40860;51.710;8.736;2023-11-21T08:39:34;8.10;99.90
54960;DHT22;40860;51.710;8.736;2023-11-21T08:43:39;8.10;99.90
54960;DHT22;40860;51.710;8.736;2023-11-21T08:47:42;8.10;99.90
54960;DHT22;40860;51.710;8.736;2023-11-21T08:51:46;8.10;99.90
54960;DHT22;40860;51.710;8.736;2023-11-21T08:55:50;8.10;99.90
54960;DHT22;40860;51.710;8.736;2023-11-21T08:59:53;8.10;99.90
54960;DHT22;40860;51.710;8.736;2023-11-21T09:03:57;8.20;99.90
54960;DHT22;40860;51.710;8.736;2023-11-21T09:08:00;8.10;99.90
54960;DHT22;40860;51.710;8.736;2023-11-21T09:12:05;8.10;99.90
54960;DHT22;40860;51.710;8.736;2023-11-21T09:16:08;8.10;99.90
54960;DHT22;40860;51.710;8.736;2023-11-21T09:20:12;8.10;99.90
54960;DHT22;40860;51.710;8.736;2023-11-21T09:24:16;8.20;99.90
54960;DHT22;40860;51.710;8.736;2023-11-21T09:28:21;8.20;99.90
54960;DHT22;40860;51.710;8.736;2023-11-21T09:32:24;8.20;99.90
54960;DHT22;40860;51.710;8.736;2023-11-21T09:36:27;8.20;99.90
54960;DHT22;40860;51.710;8.736;2023-11-21T09:40:32;8.20;99.90
54960;DHT22;40860;51.710;8.736;2023-11-21T09:44:44;8.20;99.90
54960;DHT22;40860;51.710;8.736;2023-11-21T09:48:50;8.20;99.90
54960;DHT22;40860;51.710;8.736;2023-11-21T09:53:08;8.20;99.90
54960;DHT22;40860;51.710;8.736;2023-11-21T09:57:16;8.20;99.90
54960;DHT22;40860;51.710;8.736;2023-11-21T10:01:21;8.20;99.90
54960;DHT22;40860;51.710;8.736;2023-11-21T10:05:26;8.20;99.90
54960;DHT22;40860;51.710;8.736;2023-11-21T10:09:30;8.20;99.90
54960;DHT22;40860;51.710;8.736;2023-11-21T10:13:34;8.20;99.90
54960;DHT22;40860;51.710;8.736;2023-11-21T10:17:40;8.20;99.90
54960;DHT22;40860;51.710;8.736;2023-11-21T10:21:46;8.20;99.90
54960;DHT22;40860;51.710;8.736;2023-11-21T10:25:50;8.20;99.90
54960;DHT22;40860;51.710;8.736;2023-11-21T10:29:54;8.20;99.90
54960;DHT22;40860;51.710;8.736;2023-11-21T10:34:13;8.20;99.90
54960;DHT22;40860;51.710;8.736;2023-11-21T10:38:17;8.20;99.90
54960;DHT22;40860;51.710;8.736;2023-11-21T10:42:20;8.20;99.90
54960;DHT22;40860;51.710;8.736;2023-11-21T10:46:27;8.20;99.90
54960;DHT22;40860;51.710;8.736;2023-11-21T10:50:34;8.30;99.90
54960;DHT22;40860;51.710;8.736;2023-11-21T10:54:37;8.30;99.90
54960;DHT22;40860;51.710;8.736;2023-11-21T10:58:40;8.30;99.90
54960;DHT22;40860;51.710;8.736;2023-11-21T11:02:44;8.30;99.90
54960;DHT22;40860;51.710;8.736;2023-11-21T11:06:54;8.40;99.90
54960;DHT22;40860;51.710;8.736;2023-11-21T11:10:58;8.40;99.90
54960;DHT22;40860;51.710;8.736;2023-11-21T11:15:01;8.40;99.90
54960;DHT22;40860;51.710;8.736;2023-11-21T11:19:06;8.40;99.90
54960;DHT22;40860;51.710;8.736;2023-11-21T11:23:35;8.50;99.90
54960;DHT22;40860;51.710;8.736;2023-11-21T11:27:44;8.50;99.90
54960;DHT22;40860;51.710;8.736;2023-11-21T11:31:59;8.50;99.90
54960;DHT22;40860;51.710;8.736;2023-11-21T11:36:13;8.50;99.90
54960;DHT22;40860;51.710;8.736;2023-11-21T11:40:19;8.60;99.90
54960;DHT22;40860;51.710;8.736;2023-11-21T11:44:48;8.60;99.90
54960;DHT22;40860;51.710;8.736;2023-11-21T11:49:02;8.60;99.90
54960;DHT22;40860;51.710;8.736;2023-11-21T11:53:13;8.60;99.90
54960;DHT22;40860;51.710;8.736;2023-11-21T11:57:18;8.60;99.90
54960;DHT22;40860;51.710;8.736;2023-11-21T12:01:23;8.60;99.90
54960;DHT22;40860;51.710;8.736;2023-11-21T12:05:27;8.60;99.90
54960;DHT22;40860;51.710;8.736;2023-11-21T12:09:31;8.60;99.90
54960;DHT22;40860;51.710;8.736;2023-11-21T12:13:36;8.50;99.90
54960;DHT22;40860;51.710;8.736;2023-11-21T12:17:41;8.50;99.90
54960;DHT22;40860;51.710;8.736;2023-11-21T12:21:48;8.50;99.90
54960;DHT22;40860;51.710;8.736;2023-11-21T12:25:51;8.40;99.90
54960;DHT22;40860;51.710;8.736;2023-11-21T12:29:56;8.40;99.90
54960;DHT22;40860;51.710;8.736;2023-11-21T12:34:00;8.30;99.90
54960;DHT22;40860;51.710;8.736;2023-11-21T12:38:05;8.30;99.90
54960;DHT22;40860;51.710;8.736;2023-11-21T12:42:09;8.30;99.90
54960;DHT22;40860;51.710;8.736;2023-11-21T12:46:14;8.30;99.90
54960;DHT22;40860;51.710;8.736;2023-11-21T12:50:20;8.30;99.90
54960;DHT22;40860;51.710;8.736;2023-11-21T12:54:25;8.30;99.90
54960;DHT22;40860;51.710;8.736;2023-11-21T12:58:28;8.40;99.90
54960;DHT22;40860;51.710;8.736;2023-11-21T13:02:32;8.30;99.90
54960;DHT22;40860;51.710;8.736;2023-11-21T13:06:36;8.30;99.90
54960;DHT22;40860;51.710;8.736;2023-11-21T13:10:44;8.30;99.90
54960;DHT22;40860;51.710;8.736;2023-11-21T13:14:48;8.30;99.90
54960;DHT22;40860;51.710;8.736;2023-11-21T13:18:53;8.20;99.90
54960;DHT22;40860;51.710;8.736;2023-11-21T13:22:56;8.20;99.90
54960;DHT22;40860;51.710;8.736;2023-11-21T13:27:01;8.10;99.90
54960;DHT22;40860;51.710;8.736;2023-11-21T13:31:05;8.10;99.90
54960;DHT22;40860;51.710;8.736;2023-11-21T13:35:23;8.00;99.90
54960;DHT22;40860;51.710;8.736;2023-11-21T13:39:32;7.90;99.90
54960;DHT22;40860;51.710;8.736;2023-11-21T13:43:36;7.90;99.90
54960;DHT22;40860;51.710;8.736;2023-11-21T13:47:40;7.80;99.90
54960;DHT22;40860;51.710;8.736;2023-11-21T13:51:44;7.70;99.90
54960;DHT22;40860;51.710;8.736;2023-11-21T13:55:50;7.60;99.90
54960;DHT22;40860;51.710;8.736;2023-11-21T13:59:55;7.50;99.90
54960;DHT22;40860;51.710;8.736;2023-11-21T14:04:01;7.50;99.90
54960;DHT22;40860;51.710;8.736;2023-11-21T14:08:14;7.50;99.90
54960;DHT22;40860;51.710;8.736;2023-11-21T14:12:21;7.50;99.90
54960;DHT22;40860;51.710;8.736;2023-11-21T14:16:25;7.50;99.90
54960;DHT22;40860;51.710;8.736;2023-11-21T14:20:28;7.40;99.90
54960;DHT22;40860;51.710;8.736;2023-11-21T14:24:33;7.40;99.90
54960;DHT22;40860;51.710;8.736;2023-11-21T14:28:36;7.40;99.90
54960;DHT22;40860;51.710;8.736;2023-11-21T14:32:39;7.40;99.90
54960;DHT22;40860;51.710;8.736;2023-11-21T14:36:42;7.50;99.90
54960;DHT22;40860;51.710;8.736;2023-11-21T14:40:47;7.40;99.90
54960;DHT22;40860;51.710;8.736;2023-11-21T14:44:51;7.40;99.90
54960;DHT22;40860;51.710;8.736;2023-11-21T14:48:54;7.40;99.90
54960;DHT22;40860;51.710;8.736;2023-11-21T14:53:14;7.40;99.90
54960;DHT22;40860;51.710;8.736;2023-11-21T14:57:23;7.40;99.90
54960;DHT22;40860;51.710;8.736;2023-11-21T15:01:26;7.40;99.90
54960;DHT22;40860;51.710;8.736;2023-11-21T15:05:46;7.30;99.90
54960;DHT22;40860;51.710;8.736;2023-11-21T15:09:50;7.30;99.90
54960;DHT22;40860;51.710;8.736;2023-11-21T15:13:57;7.30;99.90
54960;DHT22;40860;51.710;8.736;2023-11-21T15:18:00;7.30;99.90
54960;DHT22;40860;51.710;8.736;2023-11-21T15:22:03;7.20;99.90
54960;DHT22;40860;51.710;8.736;2023-11-21T15:26:08;7.20;99.90
54960;DHT22;40860;51.710;8.736;2023-11-21T15:30:13;7.10;99.90
54960;DHT22;40860;51.710;8.736;2023-11-21T15:34:17;7.10;99.90
54960;DHT22;40860;51.710;8.736;2023-11-21T15:38:20;7.10;99.90
54960;DHT22;40860;51.710;8.736;2023-11-21T15:42:23;7.10;99.90
54960;DHT22;40860;51.710;8.736;2023-11-21T15:46:27;7.00;99.90
54960;DHT22;40860;51.710;8.736;2023-11-21T15:50:30;7.00;99.90
54960;DHT22;40860;51.710;8.736;2023-11-21T15:54:34;7.00;99.90
54960;DHT22;40860;51.710;8.736;2023-11-21T15:58:40;7.00;99.90
54960;DHT22;40860;51.710;8.736;2023-11-21T16:02:46;7.00;99.90
54960;DHT22;40860;51.710;8.736;2023-11-21T16:06:49;6.90;99.90
54960;DHT22;40860;51.710;8.736;2023-11-21T16:10:52;6.90;99.90
54960;DHT22;40860;51.710;8.736;2023-11-21T16:14:55;6.90;99.90
54960;DHT22;40860;51.710;8.736;2023-11-21T16:19:05;6.90;99.90
54960;DHT22;40860;51.710;8.736;2023-11-21T16:23:34;6.90;99.90
54960;DHT22;40860;51.710;8.736;2023-11-21T16:27:44;6.90;99.90
54960;DHT22;40860;51.710;8.736;2023-11-21T16:31:47;6.90;99.90
54960;DHT22;40860;51.710;8.736;2023-11-21T16:35:52;6.90;99.90
54960;DHT22;40860;51.710;8.736;2023-11-21T16:39:55;6.90;99.90
54960;DHT22;40860;51.710;8.736;2023-11-21T16:43:58;6.90;99.90
54960;DHT22;40860;51.710;8.736;2023-11-21T16:48:00;6.80;99.90
54960;DHT22;40860;51.710;8.736;2023-11-21T16:52:06;6.80;99.90
54960;DHT22;40860;51.710;8.736;2023-11-21T16:56:09;6.80;99.90
54960;DHT22;40860;51.710;8.736;2023-11-21T17:00:12;6.70;99.90
54960;DHT22;40860;51.710;8.736;2023-11-21T17:04:17;6.70;99.90
54960;DHT22;40860;51.710;8.736;2023-11-21T17:08:22;6.60;99.90
54960;DHT22;40860;51.710;8.736;2023-11-21T17:12:25;6.60;99.90
54960;DHT22;40860;51.710;8.736;2023-11-21T17:16:29;6.50;99.90
54960;DHT22;40860;51.710;8.736;2023-11-21T17:20:32;6.50;99.90
54960;DHT22;40860;51.710;8.736;2023-11-21T17:24:36;6.50;99.90
54960;DHT22;40860;51.710;8.736;2023-11-21T17:28:39;6.50;99.90
54960;DHT22;40860;51.710;8.736;2023-11-21T17:32:42;6.50;99.90
54960;DHT22;40860;51.710;8.736;2023-11-21T17:36:46;6.60;99.90
54960;DHT22;40860;51.710;8.736;2023-11-21T17:40:51;6.60;99.90
54960;DHT22;40860;51.710;8.736;2023-11-21T17:44:54;6.60;99.90
54960;DHT22;40860;51.710;8.736;2023-11-21T17:48:57;6.60;99.90
54960;DHT22;40860;51.710;8.736;2023-11-21T17:53:00;6.50;99.90
54960;DHT22;40860;51.710;8.736;2023-11-21T17:57:05;6.60;99.90
54960;DHT22;40860;51.710;8.736;2023-11-21T18:01:08;6.60;99.90
54960;DHT22;40860;51.710;8.736;2023-11-21T18:05:11;6.60;99.90
54960;DHT22;40860;51.710;8.736;2023-11-21T18:09:17;6.60;99.90
54960;DHT22;40860;51.710;8.736;2023-11-21T18:13:24;6.50;99.90
54960;DHT22;40860;51.710;8.736;2023-11-21T18:17:32;6.50;99.90
54960;DHT22;40860;51.710;8.736;2023-11-21T18:21:40;6.40;99.90
54960;DHT22;40860;51.710;8.736;2023-11-21T18:25:44;6.40;99.90
54960;DHT22;40860;51.710;8.736;2023-11-21T18:29:48;6.40;99.90
54960;DHT22;40860;51.710;8.736;2023-11-21T18:33:51;6.40;99.90
54960;DHT22;40860;51.710;8.736;2023-11-21T18:37:54;6.40;99.90
54960;DHT22;40860;51.710;8.736;2023-11-21T18:42:00;6.40;99.90
54960;DHT22;40860;51.710;8.736;2023-11-21T18:46:04;6.30;99.90
54960;DHT22;40860;51.710;8.736;2023-11-21T18:50:08;6.30;99.90
54960;DHT22;40860;51.710;8.736;2023-11-21T18:54:12;6.30;99.90
54960;DHT22;40860;51.710;8.736;2023-11-21T18:58:15;6.30;99.90
54960;DHT22;40860;51.710;8.736;2023-11-21T19:02:19;6.30;99.90
54960;DHT22;40860;51.710;8.736;2023-11-21T19:06:23;6.30;99.90
54960;DHT22;40860;51.710;8.736;2023-11-21T19:10:26;6.30;99.90
54960;DHT22;40860;51.710;8.736;2023-11-21T19:14:31;6.30;99.90
54960;DHT22;40860;51.710;8.736;2023-11-21T19:18:36;6.30;99.90
54960;DHT22;40860;51.710;8.736;2023-11-21T19:22:40;6.30;99.90
54960;DHT22;40860;51.710;8.736;2023-11-21T19:26:43;6.20;99.90
54960;DHT22;40860;51.710;8.736;2023-11-21T19:30:46;6.20;99.90
54960;DHT22;40860;51.710;8.736;2023-11-21T19:34:50;6.20;99.90
54960;DHT22;40860;51.710;8.736;2023-11-21T19:38:53;6.20;99.90
54960;DHT22;40860;51.710;8.736;2023-11-21T19:42:56;6.20;99.90
54960;DHT22;40860;51.710;8.736;2023-11-21T19:46:59;6.20;99.90
54960;DHT22;40860;51.710;8.736;2023-11-21T19:51:04;6.20;99.90
54960;DHT22;40860;51.710;8.736;2023-11-21T19:55:07;6.30;99.90
54960;DHT22;40860;51.710;8.736;2023-11-21T19:59:11;6.30;99.90
54960;DHT22;40860;51.710;8.736;2023-11-21T20:03:15;6.30;99.90
54960;DHT22;40860;51.710;8.736;2023-11-21T20:07:23;6.30;99.90
54960;DHT22;40860;51.710;8.736;2023-11-21T20:11:32;6.20;99.90
54960;DHT22;40860;51.710;8.736;2023-11-21T20:15:41;6.20;99.90
54960;DHT22;40860;51.710;8.736;2023-11-21T20:20:28;6.20;99.90
54960;DHT22;40860;51.710;8.736;2023-11-21T20:30:51;6.20;99.90
54960;DHT22;40860;51.710;8.736;2023-11-21T20:35:13;6.20;99.90
54960;DHT22;40860;51.710;8.736;2023-11-21T20:39:24;6.20;99.90
54960;DHT22;40860;51.710;8.736;2023-11-21T20:43:37;6.20;99.90
54960;DHT22;40860;51.710;8.736;2023-11-21T20:47:50;6.20;99.90
54960;DHT22;40860;51.710;8.736;2023-11-21T20:51:59;6.10;99.90
54960;DHT22;40860;51.710;8.736;2023-11-21T20:56:11;6.10;99.90
54960;DHT22;40860;51.710;8.736;2023-11-21T21:00:19;6.00;99.90
54960;DHT22;40860;51.710;8.736;2023-11-21T21:04:33;6.00;99.90
54960;DHT22;40860;51.710;8.736;2023-11-21T21:08:39;6.00;99.90
54960;DHT22;40860;51.710;8.736;2023-11-21T21:12:43;6.00;99.90
54960;DHT22;40860;51.710;8.736;2023-11-21T21:17:15;6.00;99.90
54960;DHT22;40860;51.710;8.736;2023-11-21T21:21:20;5.90;99.90
54960;DHT22;40860;51.710;8.736;2023-11-21T21:25:24;5.90;99.90
54960;DHT22;40860;51.710;8.736;2023-11-21T21:29:27;5.90;99.90
54960;DHT22;40860;51.710;8.736;2023-11-21T21:33:31;5.90;99.90
54960;DHT22;40860;51.710;8.736;2023-11-21T21:37:35;5.90;99.90
54960;DHT22;40860;51.710;8.736;2023-11-21T21:41:39;5.80;99.90
54960;DHT22;40860;51.710;8.736;2023-11-21T21:45:42;5.80;99.90
54960;DHT22;40860;51.710;8.736;2023-11-21T21:49:45;5.80;99.90
54960;DHT22;40860;51.710;8.736;2023-11-21T21:53:50;5.80;99.90
54960;DHT22;40860;51.710;8.736;2023-11-21T21:57:52;5.70;99.90
54960;DHT22;40860;51.710;8.736;2023-11-21T22:01:55;5.70;99.90
54960;DHT22;40860;51.710;8.736;2023-11-21T22:05:59;5.70;99.90
54960;DHT22;40860;51.710;8.736;2023-11-21T22:10:04;5.70;99.90
54960;DHT22;40860;51.710;8.736;2023-11-21T22:14:07;5.70;99.90
54960;DHT22;40860;51.710;8.736;2023-11-21T22:18:10;5.70;99.90
54960;DHT22;40860;51.710;8.736;2023-11-21T22:22:13;5.60;99.90
54960;DHT22;40860;51.710;8.736;2023-11-21T22:26:18;5.60;99.90
54960;DHT22;40860;51.710;8.736;2023-11-21T22:30:22;5.60;99.90
54960;DHT22;40860;51.710;8.736;2023-11-21T22:34:25;5.60;99.90
54960;DHT22;40860;51.710;8.736;2023-11-21T22:38:28;5.60;99.90
54960;DHT22;40860;51.710;8.736;2023-11-21T22:42:34;5.60;99.90
54960;DHT22;40860;51.710;8.736;2023-11-21T22:46:41;5.70;99.90
54960;DHT22;40860;51.710;8.736;2023-11-21T22:50:44;5.60;99.90
54960;DHT22;40860;51.710;8.736;2023-11-21T22:54:48;5.60;99.90
54960;DHT22;40860;51.710;8.736;2023-11-21T22:58:53;5.50;99.90
54960;DHT22;40860;51.710;8.736;2023-11-21T23:02:57;5.50;99.90
54960;DHT22;40860;51.710;8.736;2023-11-21T23:07:01;5.50;99.90
54960;DHT22;40860;51.710;8.736;2023-11-21T23:11:05;5.50;99.90
54960;DHT22;40860;51.710;8.736;2023-11-21T23:15:10;5.40;99.90
54960;DHT22;40860;51.710;8.736;2023-11-21T23:19:13;5.40;99.90
54960;DHT22;40860;51.710;8.736;2023-11-21T23:23:19;5.30;99.90
54960;DHT22;40860;51.710;8.736;2023-11-21T23:27:25;5.30;99.90
54960;DHT22;40860;51.710;8.736;2023-11-21T23:31:29;5.30;99.90
54960;DHT22;40860;51.710;8.736;2023-11-21T23:35:32;5.20;99.90
54960;DHT22;40860;51.710;8.736;2023-11-21T23:39:35;5.20;99.90
54960;DHT22;40860;51.710;8.736;2023-11-21T23:43:38;5.10;99.90
54960;DHT22;40860;51.710;8.736;2023-11-21T23:47:44;5.10;99.90
54960;DHT22;40860;51.710;8.736;2023-11-21T23:51:47;5.00;99.90
54960;DHT22;40860;51.710;8.736;2023-11-21T23:55:50;4.90;99.90
54960;DHT22;40860;51.710;8.736;2023-11-21T23:59:54;4.80;99.90
